createdAt,value
2018-12-31T09:52:01.314Z,13.03
2018-12-31T09:54:32.835Z,8.30
2018-12-31T09:57:04.320Z,31.80
2018-12-31T09:59:35.743Z,7.67
2018-12-31T10:02:07.195Z,5.77
2018-12-31T10:04:38.858Z,5.43
2018-12-31T10:07:10.405Z,4.53
2018-12-31T10:09:41.857Z,3.77
2018-12-31T10:12:13.418Z,3.37
2018-12-31T10:14:44.951Z,3.43
2018-12-31T10:17:16.449Z,3.47
2018-12-31T10:19:47.974Z,3.40
2018-12-31T10:22:19.451Z,3.20
2018-12-31T10:24:51.024Z,3.80
2018-12-31T10:27:22.506Z,3.00
2018-12-31T10:29:53.969Z,2.80
2018-12-31T10:32:25.498Z,3.20
2018-12-31T10:34:56.947Z,3.20
2018-12-31T10:37:28.481Z,3.27
2018-12-31T10:39:59.999Z,3.17
2018-12-31T10:42:31.421Z,3.30
2018-12-31T10:45:02.836Z,3.20
2018-12-31T10:47:34.439Z,3.40
2018-12-31T10:50:06.121Z,3.40
2018-12-31T10:52:37.715Z,3.47
2018-12-31T10:55:09.198Z,3.40
2018-12-31T10:57:40.697Z,3.37
2018-12-31T11:00:12.236Z,3.43
2018-12-31T11:02:43.724Z,3.20
2018-12-31T11:05:15.198Z,3.40
2018-12-31T11:07:46.613Z,3.73
2018-12-31T11:10:19.252Z,3.17
2018-12-31T11:12:50.775Z,3.43
2018-12-31T11:15:22.249Z,4.17
2018-12-31T11:17:53.722Z,3.40
2018-12-31T11:20:26.125Z,4.37
2018-12-31T11:22:57.620Z,4.07
2018-12-31T11:25:29.129Z,3.73
2018-12-31T11:28:00.621Z,4.00
2018-12-31T11:30:32.133Z,3.53
2018-12-31T11:33:04.430Z,4.00
2018-12-31T11:35:35.906Z,3.67
2018-12-31T11:38:07.409Z,3.37
2018-12-31T11:40:38.923Z,3.47
2018-12-31T11:43:10.363Z,3.70
2018-12-31T11:45:41.881Z,3.57
2018-12-31T11:48:13.309Z,3.50
2018-12-31T11:50:44.785Z,3.90
2018-12-31T11:53:17.766Z,4.73
2018-12-31T11:55:50.273Z,3.37
2018-12-31T11:58:21.686Z,4.07
2018-12-31T12:00:53.168Z,3.70
2018-12-31T12:03:24.628Z,4.30
2018-12-31T12:05:57.786Z,4.27
2018-12-31T12:08:29.241Z,4.37
2018-12-31T12:11:00.740Z,4.73
2018-12-31T12:13:32.582Z,4.03
2018-12-31T12:16:04.158Z,5.20
2018-12-31T12:18:35.606Z,5.00
2018-12-31T12:21:07.042Z,4.70
2018-12-31T12:23:38.508Z,4.50
2018-12-31T12:26:10.028Z,3.43
2018-12-31T12:28:41.584Z,4.03
2018-12-31T12:31:13.133Z,3.50
2018-12-31T12:33:44.595Z,3.50
2018-12-31T12:36:16.062Z,3.60
2018-12-31T12:38:48.710Z,3.40
2018-12-31T12:41:20.249Z,2.87
2018-12-31T12:43:51.685Z,2.80
2018-12-31T12:46:23.136Z,3.50
2018-12-31T12:48:54.618Z,2.70
2018-12-31T12:51:27.827Z,3.03
2018-12-31T12:54:00.307Z,3.50
2018-12-31T12:56:31.749Z,2.70
2018-12-31T12:59:03.426Z,2.90
2018-12-31T13:01:36.727Z,3.33
2018-12-31T13:04:08.254Z,3.43
2018-12-31T13:06:39.661Z,2.80
2018-12-31T13:09:11.136Z,3.53
2018-12-31T13:11:45.621Z,3.80
2018-12-31T13:14:17.145Z,3.17
2018-12-31T13:16:48.633Z,3.27
2018-12-31T13:19:20.079Z,3.30
2018-12-31T13:21:51.760Z,3.80
2018-12-31T13:24:25.041Z,3.87
2018-12-31T13:26:56.595Z,3.73
2018-12-31T13:29:28.138Z,4.03
2018-12-31T13:31:59.760Z,3.70
2018-12-31T13:34:31.282Z,3.93
2018-12-31T13:37:03.048Z,4.20
2018-12-31T13:39:34.496Z,4.37
2018-12-31T13:42:05.956Z,4.27
2018-12-31T13:44:39.507Z,4.07
2018-12-31T13:47:12.399Z,4.37
2018-12-31T13:49:43.940Z,4.50
2018-12-31T13:52:15.696Z,3.60
2018-12-31T13:54:47.161Z,4.37
2018-12-31T13:57:18.872Z,5.00
2018-12-31T13:59:50.330Z,4.63
2018-12-31T14:02:21.777Z,4.87
2018-12-31T14:04:53.284Z,4.77
2018-12-31T14:07:24.888Z,4.83
2018-12-31T14:09:56.326Z,4.13
2018-12-31T14:12:29.562Z,6.20
2018-12-31T14:15:01.022Z,5.07
2018-12-31T14:17:32.534Z,5.27
2018-12-31T14:20:08.090Z,5.13
2018-12-31T14:22:39.606Z,5.93
2018-12-31T14:25:11.092Z,6.63
2018-12-31T14:27:43.912Z,4.00
2018-12-31T14:30:18.064Z,5.13
2018-12-31T14:32:49.543Z,4.47
2018-12-31T14:35:21.097Z,4.53
2018-12-31T14:37:53.854Z,3.70
2018-12-31T14:40:25.370Z,4.40
2018-12-31T14:42:56.871Z,4.10
2018-12-31T14:45:28.414Z,4.47
2018-12-31T14:47:59.988Z,4.87
2018-12-31T14:50:32.776Z,4.80
2018-12-31T14:53:04.352Z,4.43
2018-12-31T14:55:35.821Z,4.30
2018-12-31T14:58:07.300Z,4.63
2018-12-31T15:00:38.746Z,4.60
2018-12-31T15:03:13.482Z,5.10
2018-12-31T15:05:44.961Z,5.77
2018-12-31T15:08:16.536Z,5.67
2018-12-31T15:10:48.046Z,5.80
2018-12-31T15:13:19.487Z,5.87
2018-12-31T15:15:51.007Z,6.37
2018-12-31T15:18:22.491Z,6.80
2018-12-31T15:20:53.940Z,6.43
2018-12-31T15:23:25.427Z,6.30
2018-12-31T15:25:58.622Z,7.20
2018-12-31T15:28:30.091Z,7.00
2018-12-31T15:31:01.589Z,7.27
2018-12-31T15:33:33.104Z,7.97
2018-12-31T15:36:04.621Z,7.70
2018-12-31T15:38:37.378Z,7.70
2018-12-31T15:41:09.089Z,8.00
2018-12-31T15:43:40.609Z,8.03
2018-12-31T15:46:19.959Z,7.93
2018-12-31T15:48:45.295Z,8.37
2018-12-31T15:51:16.958Z,8.27
2018-12-31T15:53:48.486Z,9.90
2018-12-31T15:56:22.585Z,10.57
2018-12-31T15:58:54.138Z,13.73
2018-12-31T16:01:25.788Z,12.37
2018-12-31T16:03:57.305Z,13.27
2018-12-31T16:06:28.854Z,12.00
2018-12-31T16:09:00.397Z,12.47
2018-12-31T16:11:32.039Z,12.23
2018-12-31T16:14:04.746Z,11.57
2018-12-31T16:16:36.276Z,13.13
2018-12-31T16:19:14.761Z,10.17
2018-12-31T16:21:49.518Z,10.07
2018-12-31T16:24:19.705Z,9.47
2018-12-31T16:26:51.212Z,10.17
2018-12-31T16:29:22.736Z,9.80
2018-12-31T16:31:57.428Z,10.73
2018-12-31T16:34:29.333Z,20.10
2018-12-31T16:37:00.936Z,17.17
2018-12-31T16:39:34.749Z,19.33
2018-12-31T16:42:06.394Z,10.17
2018-12-31T16:44:37.921Z,10.73
2018-12-31T16:47:09.362Z,11.13
2018-12-31T16:49:40.914Z,11.90
2018-12-31T16:52:13.291Z,35.70
2018-12-31T16:54:44.800Z,23.20
2018-12-31T16:57:16.332Z,48.00
2018-12-31T16:59:50.055Z,17.43
2018-12-31T17:02:21.566Z,18.87
2018-12-31T17:04:53.182Z,14.67
2018-12-31T17:07:28.371Z,14.47
2018-12-31T17:10:00.246Z,17.60
2018-12-31T17:12:31.719Z,13.67
2018-12-31T17:15:06.445Z,12.67
2018-12-31T17:17:37.858Z,12.00
2018-12-31T17:20:12.004Z,12.63
2018-12-31T17:22:43.440Z,12.80
2018-12-31T17:25:14.936Z,11.70
2018-12-31T17:27:46.378Z,13.07
2018-12-31T17:30:21.016Z,12.63
2018-12-31T17:32:52.440Z,12.47
2018-12-31T17:35:23.988Z,12.67
2018-12-31T17:37:56.683Z,14.87
2018-12-31T17:40:28.163Z,13.03
2018-12-31T17:42:59.606Z,13.30
2018-12-31T17:45:31.360Z,12.97
2018-12-31T17:48:02.854Z,14.10
2018-12-31T17:50:36.333Z,13.67
2018-12-31T17:53:07.484Z,14.63
2018-12-31T17:55:39.171Z,14.13
2018-12-31T17:58:10.615Z,15.47
2018-12-31T18:00:42.095Z,13.80
2018-12-31T18:03:15.615Z,14.43
2018-12-31T18:05:47.056Z,14.70
2018-12-31T18:08:18.508Z,16.67
2018-12-31T18:10:49.939Z,14.77
2018-12-31T18:13:27.066Z,15.57
2018-12-31T18:15:58.552Z,23.20
2018-12-31T18:18:30.037Z,17.30
2018-12-31T18:21:01.718Z,24.37
2018-12-31T18:23:34.377Z,28.40
2018-12-31T18:26:05.852Z,14.47
2018-12-31T18:28:37.363Z,16.97
2018-12-31T18:31:08.914Z,16.10
2018-12-31T18:33:40.343Z,11.90
2018-12-31T18:36:11.816Z,11.60
2018-12-31T18:38:43.502Z,12.27
2018-12-31T18:41:15.008Z,12.90
2018-12-31T18:43:47.572Z,12.90
2018-12-31T18:46:18.974Z,19.43
2018-12-31T18:48:50.762Z,29.67
2018-12-31T18:51:22.214Z,46.83
2018-12-31T18:53:55.726Z,45.20
2018-12-31T18:56:30.422Z,29.77
2018-12-31T18:59:04.891Z,22.90
2018-12-31T19:01:36.417Z,24.17
2018-12-31T19:04:07.945Z,23.77
2018-12-31T19:06:39.465Z,18.93
2018-12-31T19:09:11.265Z,25.83
2018-12-31T19:11:42.782Z,18.03
2018-12-31T19:14:14.234Z,14.83
2018-12-31T19:16:45.717Z,22.30
2018-12-31T19:19:17.146Z,18.03
2018-12-31T19:21:48.639Z,17.00
2018-12-31T19:24:21.698Z,18.60
2018-12-31T19:26:53.135Z,21.17
2018-12-31T19:29:24.593Z,17.27
2018-12-31T19:31:57.234Z,27.57
2018-12-31T19:34:28.792Z,26.33
2018-12-31T19:37:00.257Z,22.27
2018-12-31T19:39:31.769Z,24.50
2018-12-31T19:42:06.569Z,18.00
2018-12-31T19:44:38.039Z,17.60
2018-12-31T19:47:09.509Z,16.83
2018-12-31T19:49:40.977Z,18.53
2018-12-31T19:52:12.656Z,26.40
2018-12-31T19:54:44.080Z,17.87
2018-12-31T19:57:15.522Z,22.73
2018-12-31T19:59:47.009Z,27.30
2018-12-31T20:02:19.628Z,18.73
2018-12-31T20:04:56.029Z,18.43
2018-12-31T20:07:30.693Z,17.57
2018-12-31T20:10:02.346Z,15.67
2018-12-31T20:12:34.230Z,15.03
2018-12-31T20:15:06.339Z,15.57
2018-12-31T20:17:37.777Z,13.37
2018-12-31T20:20:09.199Z,14.83
2018-12-31T20:22:40.712Z,16.30
2018-12-31T20:25:15.196Z,15.60
2018-12-31T20:27:46.649Z,15.30
2018-12-31T20:30:19.195Z,13.17
2018-12-31T20:32:50.703Z,14.33
2018-12-31T20:35:22.166Z,14.47
2018-12-31T20:37:53.649Z,16.70
2018-12-31T20:40:25.097Z,14.77
2018-12-31T20:42:56.600Z,16.00
2018-12-31T20:45:30.335Z,18.77
2018-12-31T20:48:02.205Z,16.50
2018-12-31T20:50:33.620Z,17.57
2018-12-31T20:53:10.635Z,17.40
2018-12-31T20:55:42.078Z,17.57
2018-12-31T20:58:13.553Z,17.47
2018-12-31T21:00:46.806Z,19.00
2018-12-31T21:03:21.653Z,20.63
2018-12-31T21:05:53.125Z,18.13
2018-12-31T21:08:24.695Z,20.57
2018-12-31T21:10:56.185Z,19.37
2018-12-31T21:13:27.658Z,20.40
2018-12-31T21:15:59.071Z,18.40
2018-12-31T21:18:30.984Z,18.53
2018-12-31T21:21:02.426Z,18.30
2018-12-31T21:23:33.883Z,18.57
2018-12-31T21:26:05.363Z,20.03
2018-12-31T21:28:36.803Z,21.07
2018-12-31T21:31:08.224Z,21.73
2018-12-31T21:33:39.791Z,22.63
2018-12-31T21:36:11.254Z,18.07
2018-12-31T21:38:42.676Z,19.17
2018-12-31T21:41:14.414Z,19.77
2018-12-31T21:43:45.997Z,19.37
2018-12-31T21:46:17.440Z,17.57
2018-12-31T21:48:51.727Z,18.23
2018-12-31T21:51:23.466Z,17.87
2018-12-31T21:53:56.770Z,19.60
2018-12-31T21:56:28.265Z,19.20
2018-12-31T21:58:59.708Z,21.37
2018-12-31T22:01:36.296Z,18.47
2018-12-31T22:04:07.826Z,20.90
2018-12-31T22:06:40.723Z,20.63
2018-12-31T22:09:12.308Z,17.67
2018-12-31T22:11:44.024Z,19.70
2018-12-31T22:14:15.526Z,20.77
2018-12-31T22:16:46.938Z,19.27
2018-12-31T22:19:21.284Z,19.40
2018-12-31T22:21:52.670Z,19.27
2018-12-31T22:24:24.128Z,19.60
2018-12-31T22:26:55.657Z,25.30
2018-12-31T22:29:27.246Z,19.97
2018-12-31T22:32:03.775Z,36.70
2018-12-31T22:34:35.238Z,64.23
2018-12-31T22:37:08.790Z,27.10
2018-12-31T22:39:40.233Z,26.07
2018-12-31T22:42:11.688Z,29.83
2018-12-31T22:44:43.126Z,39.43
2018-12-31T22:47:16.267Z,31.67
2018-12-31T22:49:49.193Z,21.47
2018-12-31T22:52:21.695Z,23.47
2018-12-31T22:54:53.121Z,23.67
2018-12-31T22:57:24.603Z,22.27
2018-12-31T22:59:56.072Z,20.40
2018-12-31T23:02:27.731Z,23.27
2018-12-31T23:04:59.241Z,25.27
2018-12-31T23:07:32.048Z,22.10
2018-12-31T23:10:03.491Z,474.50
2018-12-31T23:12:36.128Z,69.00
2018-12-31T23:15:13.388Z,319.77
2018-12-31T23:17:44.809Z,580.03
2018-12-31T23:20:16.665Z,309.97
2018-12-31T23:22:48.183Z,126.40
2018-12-31T23:25:20.370Z,97.50
2018-12-31T23:27:51.905Z,39.33
2018-12-31T23:30:23.374Z,40.00
2018-12-31T23:32:54.872Z,37.67
2018-12-31T23:35:26.373Z,43.07
2018-12-31T23:37:57.844Z,44.93
2018-12-31T23:40:29.298Z,52.93
2018-12-31T23:43:06.380Z,52.33
2018-12-31T23:45:34.192Z,69.97
2018-12-31T23:48:06.827Z,63.30
2018-12-31T23:50:40.381Z,90.43
2018-12-31T23:53:11.853Z,89.73
2018-12-31T23:55:43.262Z,91.77
2018-12-31T23:58:14.820Z,87.33
